Time;durP1;ratioP1;P1;durP2;ratioP2;P2;SDS_P1;SDS_P2;PMS_P1;PMS_P2;Temp;Humidity;BMP_temperature;BMP_pressure;BME280_temperature;BME280_humidity;BME280_pressure;Samples;Min_cycle;Max_cycle;Signal;HPM_P1;HPM_P2
2023/12/29 00:00:26;;;;;;;2.92;1.60;;;9.10;99.90;;;;;;5096862;28;20146;-69
2023/12/29 00:02:52;;;;;;;5.30;1.70;;;9.10;99.90;;;;;;5078719;28;20032;-69
2023/12/29 00:05:17;;;;;;;2.97;1.67;;;9.10;99.90;;;;;;5099025;28;20106;-69
2023/12/29 00:07:43;;;;;;;4.45;1.88;;;9.20;99.90;;;;;;5089826;28;20133;-69
2023/12/29 00:10:09;;;;;;;3.13;1.52;;;9.20;99.90;;;;;;5101028;28;20040;-70
2023/12/29 00:12:34;;;;;;;4.55;1.80;;;9.20;99.90;;;;;;5101966;28;20036;-68
2023/12/29 00:15:00;;;;;;;3.45;1.60;;;9.10;99.90;;;;;;5090496;28;20040;-67
2023/12/29 00:17:25;;;;;;;4.15;1.60;;;9.20;99.90;;;;;;5093430;28;20113;-68
2023/12/29 00:19:53;;;;;;;4.45;1.50;;;9.20;99.90;;;;;;5085748;28;20174;-67
2023/12/29 00:22:19;;;;;;;2.85;1.63;;;9.30;99.90;;;;;;5088909;28;20081;-68
2023/12/29 00:24:44;;;;;;;3.85;1.92;;;9.20;99.90;;;;;;5091072;28;20043;-68
2023/12/29 00:27:10;;;;;;;3.17;1.80;;;9.30;99.90;;;;;;5099589;28;20062;-68
2023/12/29 00:29:36;;;;;;;6.35;2.33;;;9.20;99.90;;;;;;5086197;28;20027;-68
2023/12/29 00:32:02;;;;;;;4.43;2.15;;;9.40;99.90;;;;;;5109267;28;20035;-71
2023/12/29 00:34:28;;;;;;;4.32;2.13;;;9.30;99.90;;;;;;5095154;28;20143;-69
2023/12/29 00:36:54;;;;;;;3.72;1.90;;;9.40;99.90;;;;;;5094604;28;20115;-69
2023/12/29 00:39:28;;;;;;;7.50;2.33;;;9.40;99.90;;;;;;5085839;28;20043;-72
2023/12/29 00:41:54;;;;;;;4.32;1.98;;;9.40;99.90;;;;;;5082223;28;20055;-68
2023/12/29 00:44:20;;;;;;;4.47;2.22;;;9.40;99.90;;;;;;5067865;28;20085;-68
2023/12/29 00:46:45;;;;;;;4.57;1.85;;;9.40;99.90;;;;;;5096081;28;20020;-69
2023/12/29 00:49:11;;;;;;;5.07;2.17;;;9.40;99.90;;;;;;5104914;28;20545;-69
2023/12/29 00:51:43;;;;;;;3.83;1.70;;;9.30;99.90;;;;;;5068299;28;20024;-68
2023/12/29 00:54:09;;;;;;;4.43;2.10;;;9.40;99.90;;;;;;5058023;28;20063;-72
2023/12/29 00:56:34;;;;;;;7.32;2.20;;;9.40;99.90;;;;;;5094704;28;20462;-68
2023/12/29 00:59:00;;;;;;;5.20;2.15;;;9.50;99.90;;;;;;5070595;28;20029;-69
2023/12/29 01:01:26;;;;;;;3.90;2.05;;;9.50;99.90;;;;;;5078273;28;20052;-69
2023/12/29 01:03:54;;;;;;;6.07;2.05;;;9.40;99.90;;;;;;5090062;28;20127;-69
2023/12/29 01:06:20;;;;;;;3.47;1.75;;;9.50;99.90;;;;;;5074799;28;20390;-69
2023/12/29 01:08:46;;;;;;;4.80;1.90;;;9.50;99.90;;;;;;5097664;28;20036;-68
2023/12/29 01:11:11;;;;;;;3.83;1.88;;;9.50;99.90;;;;;;5088163;28;20036;-70
2023/12/29 01:13:37;;;;;;;3.78;2.03;;;9.40;99.90;;;;;;5088664;28;20043;-70
2023/12/29 01:16:03;;;;;;;5.47;2.35;;;9.40;99.90;;;;;;5080034;28;20028;-69
2023/12/29 01:18:28;;;;;;;4.70;2.42;;;9.40;99.90;;;;;;5074694;28;20027;-69
2023/12/29 01:20:54;;;;;;;4.30;2.20;;;9.40;99.90;;;;;;5072901;28;20023;-68
2023/12/29 01:23:22;;;;;;;3.70;2.15;;;9.40;99.90;;;;;;5100397;28;20501;-68
2023/12/29 01:25:48;;;;;;;5.97;2.30;;;9.50;99.90;;;;;;5092800;28;20032;-69
2023/12/29 01:28:13;;;;;;;3.95;2.35;;;9.60;99.90;;;;;;5088869;28;20378;-69
2023/12/29 01:30:39;;;;;;;5.78;2.10;;;9.60;99.90;;;;;;5088925;28;20043;-68
2023/12/29 01:33:05;;;;;;;4.00;2.10;;;9.50;99.90;;;;;;5088033;28;20485;-69
2023/12/29 01:35:31;;;;;;;4.10;2.35;;;9.50;99.90;;;;;;5097634;28;20076;-69
2023/12/29 01:37:56;;;;;;;6.75;2.58;;;9.50;99.90;;;;;;5103396;28;20493;-68
2023/12/29 01:40:22;;;;;;;4.50;2.20;;;9.50;99.90;;;;;;5088632;28;20453;-69
2023/12/29 01:42:48;;;;;;;5.53;2.33;;;9.50;99.90;;;;;;5089486;28;20489;-67
2023/12/29 01:45:22;;;;;;;5.70;2.28;;;9.40;99.90;;;;;;5088416;28;20070;-69
2023/12/29 01:47:52;;;;;;;3.65;2.13;;;9.40;99.90;;;;;;5088590;28;20032;-68
2023/12/29 01:50:20;;;;;;;4.50;2.30;;;9.50;99.90;;;;;;5096639;28;20339;-69
2023/12/29 01:52:49;;;;;;;5.97;2.42;;;9.40;99.90;;;;;;5090110;28;20040;-68
2023/12/29 01:55:19;;;;;;;5.35;2.50;;;9.50;99.90;;;;;;5091381;28;20050;-68
2023/12/29 01:57:46;;;;;;;5.13;2.40;;;9.50;99.90;;;;;;5088469;28;20104;-68
2023/12/29 02:00:13;;;;;;;5.82;2.50;;;9.50;99.90;;;;;;5083718;28;20772;-71
2023/12/29 02:02:39;;;;;;;4.97;2.67;;;9.50;99.90;;;;;;5103796;28;20264;-70
2023/12/29 02:05:05;;;;;;;4.20;2.33;;;9.40;99.90;;;;;;5067947;28;20020;-68
2023/12/29 02:07:32;;;;;;;4.63;2.65;;;9.50;99.90;;;;;;5070430;28;20019;-68
2023/12/29 02:09:59;;;;;;;5.07;2.65;;;9.40;99.90;;;;;;5065441;28;20035;-69
2023/12/29 02:12:25;;;;;;;5.32;2.67;;;9.30;99.90;;;;;;5085799;28;20423;-68
2023/12/29 02:14:51;;;;;;;5.90;2.92;;;9.30;99.90;;;;;;5088542;28;20028;-68
2023/12/29 02:17:26;;;;;;;4.85;2.45;;;9.30;99.90;;;;;;5063139;28;20071;-69
2023/12/29 02:19:52;;;;;;;6.85;2.88;;;9.50;99.90;;;;;;5090086;28;20746;-68
2023/12/29 02:22:18;;;;;;;4.22;2.28;;;9.40;99.90;;;;;;5108261;28;20026;-69
2023/12/29 02:24:51;;;;;;;6.88;2.50;;;9.50;99.90;;;;;;5069963;28;20028;-69
2023/12/29 02:27:38;;;;;;;6.70;3.13;;;9.50;99.90;;;;;;5081879;28;20048;-70
2023/12/29 02:30:13;;;;;;;6.80;3.05;;;9.50;99.90;;;;;;5089701;28;20039;-68
2023/12/29 02:32:42;;;;;;;4.53;2.67;;;9.40;99.90;;;;;;5087229;28;20048;-69
2023/12/29 02:35:14;;;;;;;7.55;3.03;;;9.40;99.90;;;;;;5067042;28;20389;-68
2023/12/29 02:37:40;;;;;;;7.00;2.83;;;9.40;99.90;;;;;;5087062;28;20047;-68
2023/12/29 02:40:08;;;;;;;6.95;3.08;;;9.40;99.90;;;;;;5068497;28;20024;-69
2023/12/29 02:42:34;;;;;;;6.75;2.90;;;9.40;99.90;;;;;;5087831;28;20050;-69
2023/12/29 02:44:59;;;;;;;5.45;2.92;;;9.40;99.90;;;;;;5068940;28;20393;-67
2023/12/29 02:47:25;;;;;;;7.05;3.00;;;9.40;99.90;;;;;;5085314;28;20072;-68
2023/12/29 02:49:51;;;;;;;7.88;3.08;;;9.50;99.90;;;;;;5084966;28;20107;-68
2023/12/29 02:52:17;;;;;;;6.95;2.90;;;9.40;99.90;;;;;;5086732;28;20679;-69
2023/12/29 02:54:42;;;;;;;10.32;3.05;;;9.40;99.90;;;;;;5084895;28;20051;-71
2023/12/29 02:57:08;;;;;;;5.82;3.20;;;9.30;99.90;;;;;;5086254;28;20153;-68
2023/12/29 02:59:34;;;;;;;7.18;3.20;;;9.30;99.90;;;;;;5099694;28;20103;-69
2023/12/29 03:01:59;;;;;;;9.35;3.53;;;9.30;99.90;;;;;;5105599;28;20111;-67
2023/12/29 03:04:25;;;;;;;6.05;3.10;;;9.30;99.90;;;;;;5082697;28;20031;-69
2023/12/29 03:06:51;;;;;;;6.10;3.05;;;9.30;99.90;;;;;;5089921;28;20030;-67
2023/12/29 03:09:16;;;;;;;7.28;3.05;;;9.30;99.90;;;;;;5084223;28;20032;-71
2023/12/29 03:11:42;;;;;;;5.85;2.88;;;9.30;99.90;;;;;;5068836;28;20424;-69
2023/12/29 03:14:08;;;;;;;6.68;3.10;;;9.30;99.90;;;;;;5086794;28;20079;-68
2023/12/29 03:16:33;;;;;;;8.13;3.13;;;9.30;99.90;;;;;;5093913;28;20039;-68
2023/12/29 03:18:59;;;;;;;6.30;3.10;;;9.30;99.90;;;;;;5095242;28;20040;-68
2023/12/29 03:21:24;;;;;;;7.47;3.47;;;9.30;99.90;;;;;;5058492;28;20052;-68
2023/12/29 03:23:50;;;;;;;7.43;3.30;;;9.20;99.90;;;;;;5087518;28;20491;-69
2023/12/29 03:26:16;;;;;;;6.90;3.50;;;9.20;99.90;;;;;;5091763;28;20562;-71
2023/12/29 03:28:41;;;;;;;6.57;3.33;;;9.20;99.90;;;;;;5091124;28;20382;-68
2023/12/29 03:31:07;;;;;;;7.00;3.40;;;9.20;99.90;;;;;;5083993;28;20479;-68
2023/12/29 03:33:32;;;;;;;7.25;3.25;;;9.20;99.90;;;;;;5084129;28;20039;-70
2023/12/29 03:35:59;;;;;;;7.22;3.30;;;9.20;99.90;;;;;;5096488;28;20257;-68
2023/12/29 03:38:24;;;;;;;7.45;3.58;;;9.10;99.90;;;;;;5090068;28;20032;-68
2023/12/29 03:40:50;;;;;;;6.47;3.03;;;9.10;99.90;;;;;;5090980;28;20043;-68
2023/12/29 03:43:15;;;;;;;9.00;3.60;;;9.10;99.90;;;;;;5089548;28;20028;-71
2023/12/29 03:45:41;;;;;;;7.35;3.30;;;9.10;99.90;;;;;;5092881;28;20028;-68
2023/12/29 03:48:08;;;;;;;8.55;3.40;;;9.10;99.90;;;;;;5069400;28;20581;-70
2023/12/29 03:50:34;;;;;;;6.18;3.72;;;9.00;99.90;;;;;;5089450;28;20026;-69
2023/12/29 03:53:00;;;;;;;7.55;3.40;;;9.00;99.90;;;;;;5090693;28;20043;-67
2023/12/29 03:55:25;;;;;;;6.60;3.20;;;9.00;99.90;;;;;;5069604;28;20127;-68
2023/12/29 03:57:51;;;;;;;7.40;3.28;;;9.00;99.90;;;;;;5071842;28;20505;-68
2023/12/29 04:00:17;;;;;;;10.38;3.50;;;9.00;99.90;;;;;;5108178;28;20059;-71
2023/12/29 04:02:42;;;;;;;7.75;3.22;;;9.00;99.90;;;;;;5069529;28;20043;-69
2023/12/29 04:05:11;;;;;;;6.82;3.20;;;9.00;99.90;;;;;;5089983;28;20047;-68
2023/12/29 04:07:40;;;;;;;6.75;3.15;;;9.00;99.90;;;;;;5085782;28;20033;-68
2023/12/29 04:10:07;;;;;;;6.25;3.00;;;9.00;99.90;;;;;;5063789;28;20032;-68
2023/12/29 04:12:32;;;;;;;8.00;3.38;;;9.00;99.90;;;;;;5093737;28;20036;-68
2023/12/29 04:14:58;;;;;;;8.82;2.95;;;9.00;99.90;;;;;;5086113;28;20510;-68
2023/12/29 04:17:24;;;;;;;6.43;3.28;;;9.10;99.90;;;;;;5071219;28;20039;-69
2023/12/29 04:19:49;;;;;;;7.85;2.67;;;9.10;99.90;;;;;;5078019;28;20128;-68
2023/12/29 04:22:15;;;;;;;6.05;3.03;;;9.00;99.90;;;;;;5099955;28;20036;-68
2023/12/29 04:24:40;;;;;;;5.15;2.95;;;9.00;99.90;;;;;;5092055;28;20016;-68
2023/12/29 04:27:06;;;;;;;9.95;3.15;;;9.00;99.90;;;;;;5077726;28;20031;-68
2023/12/29 04:29:32;;;;;;;6.18;2.72;;;9.00;99.90;;;;;;5099735;28;20038;-70
2023/12/29 04:31:57;;;;;;;6.57;3.10;;;9.00;99.90;;;;;;5076469;28;20474;-69
2023/12/29 04:34:23;;;;;;;5.32;2.90;;;9.00;99.90;;;;;;5074847;28;20043;-69
2023/12/29 04:36:49;;;;;;;6.95;3.08;;;9.00;99.90;;;;;;5085243;28;20145;-68
2023/12/29 04:39:15;;;;;;;4.78;2.58;;;9.00;99.90;;;;;;5090342;28;20024;-68
2023/12/29 04:41:40;;;;;;;6.60;2.92;;;9.00;99.90;;;;;;5089837;28;20024;-67
2023/12/29 04:44:06;;;;;;;4.95;2.65;;;8.90;99.90;;;;;;5088875;28;20027;-68
2023/12/29 04:46:32;;;;;;;8.45;2.88;;;9.00;99.90;;;;;;5093398;28;20028;-69
2023/12/29 04:48:57;;;;;;;11.45;2.80;;;9.00;99.90;;;;;;5089697;28;20073;-69
2023/12/29 04:51:23;;;;;;;5.07;2.80;;;9.00;99.90;;;;;;5092881;28;20020;-70
2023/12/29 04:53:48;;;;;;;5.07;2.92;;;9.00;99.90;;;;;;5089465;28;20756;-66
2023/12/29 04:56:14;;;;;;;4.70;2.58;;;9.00;99.90;;;;;;5086339;28;20032;-68
2023/12/29 04:58:39;;;;;;;6.03;2.33;;;9.00;99.90;;;;;;5076695;28;20047;-67
2023/12/29 05:01:05;;;;;;;6.18;3.00;;;9.00;99.90;;;;;;5092551;28;20095;-68
2023/12/29 05:03:31;;;;;;;5.80;3.00;;;9.00;99.90;;;;;;5067936;28;20492;-67
2023/12/29 05:05:56;;;;;;;5.53;2.85;;;9.00;99.90;;;;;;5070107;28;20043;-67
2023/12/29 05:08:22;;;;;;;7.53;3.00;;;8.90;99.90;;;;;;5065101;28;20120;-70
2023/12/29 05:10:48;;;;;;;6.35;2.92;;;9.00;99.90;;;;;;5089280;28;20023;-68
2023/12/29 05:13:13;;;;;;;5.57;2.70;;;9.00;99.90;;;;;;5085912;28;20126;-67
2023/12/29 05:15:39;;;;;;;5.18;2.55;;;9.00;99.90;;;;;;5086917;28;20539;-68
2023/12/29 05:18:05;;;;;;;6.10;2.83;;;9.00;99.90;;;;;;5099282;28;20041;-68
2023/12/29 05:20:31;;;;;;;4.82;2.72;;;8.90;99.90;;;;;;5087577;28;20085;-66
2023/12/29 05:22:56;;;;;;;5.10;2.53;;;8.90;99.90;;;;;;5081647;28;20040;-67
2023/12/29 05:25:24;;;;;;;4.53;2.90;;;8.80;99.90;;;;;;5085585;28;20097;-71
2023/12/29 05:27:50;;;;;;;5.72;2.65;;;8.80;99.90;;;;;;5089351;28;20058;-68
2023/12/29 05:30:15;;;;;;;6.05;3.10;;;8.80;99.90;;;;;;5090023;28;20455;-67
2023/12/29 05:32:41;;;;;;;6.05;2.58;;;8.70;99.90;;;;;;5068986;28;20811;-66
2023/12/29 05:35:07;;;;;;;5.13;2.65;;;8.70;99.90;;;;;;5081101;28;20106;-68
2023/12/29 05:37:33;;;;;;;6.68;2.50;;;8.80;99.90;;;;;;5064673;28;20488;-68
2023/12/29 05:39:58;;;;;;;4.28;2.60;;;8.90;99.90;;;;;;5107085;28;20035;-67
2023/12/29 05:42:24;;;;;;;5.78;2.85;;;8.80;99.90;;;;;;5079812;28;20044;-71
2023/12/29 05:44:50;;;;;;;4.88;2.58;;;8.90;99.90;;;;;;5095367;28;20057;-67
2023/12/29 05:47:18;;;;;;;5.65;2.67;;;8.90;99.90;;;;;;5089851;28;20477;-67
2023/12/29 05:49:44;;;;;;;4.85;2.60;;;8.90;99.90;;;;;;5106197;28;20088;-68
2023/12/29 05:52:10;;;;;;;6.32;2.90;;;8.90;99.90;;;;;;5088335;28;20023;-67
2023/12/29 05:54:35;;;;;;;5.50;2.85;;;8.90;99.90;;;;;;5089499;28;20028;-68
2023/12/29 05:57:02;;;;;;;5.15;2.67;;;8.90;99.90;;;;;;5070596;28;20028;-67
2023/12/29 05:59:27;;;;;;;6.05;2.58;;;8.90;99.90;;;;;;5088388;28;20051;-71
2023/12/29 06:01:53;;;;;;;6.90;3.22;;;8.80;99.90;;;;;;5088838;28;20065;-67
2023/12/29 06:04:19;;;;;;;5.70;2.58;;;8.80;99.90;;;;;;5089404;28;20092;-68
2023/12/29 06:06:45;;;;;;;6.93;3.22;;;8.80;99.90;;;;;;5089688;28;20103;-68
2023/12/29 06:09:11;;;;;;;9.35;3.20;;;8.80;99.90;;;;;;5076940;28;20029;-66
2023/12/29 06:11:37;;;;;;;6.05;2.47;;;8.70;99.90;;;;;;5068272;28;20036;-67
2023/12/29 06:14:03;;;;;;;9.55;3.75;;;8.70;99.90;;;;;;5075075;28;20043;-69
2023/12/29 06:16:32;;;;;;;6.60;3.17;;;8.70;99.90;;;;;;5088178;28;20063;-69
2023/12/29 06:18:58;;;;;;;4.75;2.60;;;8.70;99.90;;;;;;5087626;28;20055;-68
2023/12/29 06:21:23;;;;;;;5.18;2.65;;;8.70;99.90;;;;;;5068867;28;20028;-68
2023/12/29 06:23:49;;;;;;;5.65;2.95;;;8.70;99.90;;;;;;5085045;28;20086;-68
2023/12/29 06:26:19;;;;;;;7.82;2.95;;;8.70;99.90;;;;;;5078888;28;20040;-67
2023/12/29 06:28:45;;;;;;;7.23;2.63;;;8.70;99.90;;;;;;5107790;28;20031;-68
2023/12/29 06:31:11;;;;;;;4.90;2.78;;;8.70;99.90;;;;;;5069584;28;20039;-68
2023/12/29 06:33:41;;;;;;;5.43;2.90;;;8.70;99.90;;;;;;5088314;28;20377;-68
2023/12/29 06:36:07;;;;;;;6.43;3.03;;;8.70;99.90;;;;;;5088635;28;20496;-68
2023/12/29 06:38:33;;;;;;;6.05;3.03;;;8.70;99.90;;;;;;5086798;28;20110;-68
2023/12/29 06:41:01;;;;;;;6.22;3.00;;;8.70;99.90;;;;;;5082759;28;20040;-69
2023/12/29 06:43:27;;;;;;;5.63;2.90;;;8.70;99.90;;;;;;5077999;28;20040;-70
2023/12/29 06:45:52;;;;;;;5.88;2.85;;;8.70;99.90;;;;;;5087841;28;20032;-68
2023/12/29 06:48:18;;;;;;;5.95;3.20;;;8.70;99.90;;;;;;5068641;28;20052;-68
2023/12/29 06:50:44;;;;;;;5.13;2.80;;;8.70;99.90;;;;;;5052221;28;20545;-68
2023/12/29 06:53:09;;;;;;;5.93;3.05;;;8.70;99.90;;;;;;5088078;28;20034;-67
2023/12/29 06:55:35;;;;;;;6.35;3.03;;;8.60;99.90;;;;;;5087486;28;20037;-71
2023/12/29 06:58:01;;;;;;;8.55;2.83;;;8.60;99.90;;;;;;5087781;28;20090;-69
2023/12/29 07:00:27;;;;;;;5.32;2.83;;;8.60;99.90;;;;;;5088255;28;20078;-72
2023/12/29 07:02:52;;;;;;;5.60;3.00;;;8.60;99.90;;;;;;5069044;28;20043;-68
2023/12/29 07:05:18;;;;;;;6.32;2.88;;;8.50;99.90;;;;;;5070426;28;20032;-67
2023/12/29 07:07:44;;;;;;;5.90;2.67;;;8.50;99.90;;;;;;5085592;28;20489;-68
2023/12/29 07:10:13;;;;;;;6.90;3.10;;;8.50;99.90;;;;;;5085087;28;20028;-67
2023/12/29 07:12:40;;;;;;;5.93;2.85;;;8.60;99.90;;;;;;5074082;28;20047;-67
2023/12/29 07:15:06;;;;;;;7.85;2.90;;;8.60;99.90;;;;;;5075946;28;20378;-67
2023/12/29 07:17:32;;;;;;;6.13;2.67;;;8.60;99.90;;;;;;5071579;28;20085;-71
2023/12/29 07:19:57;;;;;;;6.53;3.13;;;8.60;99.90;;;;;;5106972;28;20032;-68
2023/12/29 07:22:23;;;;;;;5.30;2.92;;;8.60;99.90;;;;;;5101333;28;20034;-67
2023/12/29 07:24:49;;;;;;;5.75;3.25;;;8.60;99.90;;;;;;5102640;28;20059;-68
2023/12/29 07:27:14;;;;;;;5.22;2.95;;;8.60;99.90;;;;;;5107995;28;20018;-71
2023/12/29 07:29:40;;;;;;;4.68;2.60;;;8.60;99.90;;;;;;5098777;28;20032;-67
2023/12/29 07:32:06;;;;;;;6.28;2.90;;;8.60;99.90;;;;;;5075920;28;20032;-66
2023/12/29 07:34:31;;;;;;;8.30;2.78;;;8.70;99.90;;;;;;5068801;28;20044;-71
2023/12/29 07:37:00;;;;;;;6.57;3.20;;;8.70;99.90;;;;;;5067548;28;20394;-68
2023/12/29 07:39:26;;;;;;;5.43;3.00;;;8.70;99.90;;;;;;5067926;28;20372;-67
2023/12/29 07:41:52;;;;;;;6.53;2.70;;;8.80;99.90;;;;;;5095206;28;20031;-68
2023/12/29 07:44:18;;;;;;;5.90;2.70;;;8.80;99.90;;;;;;5107955;28;20473;-66
2023/12/29 07:46:44;;;;;;;4.97;2.72;;;8.90;99.90;;;;;;5085007;28;20059;-67
2023/12/29 07:49:10;;;;;;;6.35;2.63;;;8.90;99.90;;;;;;5091319;28;20042;-66
2023/12/29 07:51:44;;;;;;;5.30;2.47;;;8.90;99.90;;;;;;5088500;28;20039;-66
2023/12/29 07:54:10;;;;;;;4.85;2.70;;;8.90;99.90;;;;;;5071414;28;20067;-66
2023/12/29 07:56:37;;;;;;;5.20;2.40;;;9.00;99.90;;;;;;5082186;28;20067;-67
2023/12/29 07:59:03;;;;;;;5.75;2.70;;;9.00;99.90;;;;;;5077492;28;20032;-67
2023/12/29 08:01:29;;;;;;;4.75;2.60;;;9.10;99.90;;;;;;5076961;28;20155;-70
2023/12/29 08:03:54;;;;;;;6.70;2.85;;;9.10;99.90;;;;;;5085535;28;20118;-69
2023/12/29 08:06:20;;;;;;;5.05;2.35;;;9.10;99.90;;;;;;5060033;28;20062;-68
2023/12/29 08:08:46;;;;;;;6.75;2.92;;;9.20;99.90;;;;;;5085750;28;20425;-69
2023/12/29 08:11:18;;;;;;;4.97;2.80;;;9.20;99.90;;;;;;5075720;28;20039;-67
2023/12/29 08:13:46;;;;;;;6.32;2.75;;;9.30;99.90;;;;;;5070769;28;20052;-68
2023/12/29 08:16:12;;;;;;;5.65;2.70;;;9.20;99.90;;;;;;5072145;28;20075;-68
2023/12/29 08:18:38;;;;;;;7.43;2.58;;;9.10;99.90;;;;;;5087450;28;20086;-68
2023/12/29 08:21:04;;;;;;;5.65;2.28;;;9.20;99.90;;;;;;5081376;28;20074;-69
2023/12/29 08:23:29;;;;;;;7.32;2.55;;;9.30;99.90;;;;;;5088974;28;20397;-67
2023/12/29 08:25:58;;;;;;;4.40;2.33;;;9.50;99.90;;;;;;5080527;28;20886;-68
2023/12/29 08:28:24;;;;;;;4.63;2.30;;;9.60;99.90;;;;;;5087413;28;20028;-68
2023/12/29 08:30:50;;;;;;;4.30;2.45;;;9.70;99.90;;;;;;5089612;28;20032;-68
2023/12/29 08:33:16;;;;;;;4.63;2.25;;;9.70;99.90;;;;;;5080428;28;20171;-67
2023/12/29 08:35:42;;;;;;;5.80;2.28;;;9.80;99.90;;;;;;5086106;28;20063;-67
2023/12/29 08:38:07;;;;;;;4.95;2.47;;;9.80;99.90;;;;;;5080258;28;20040;-69
2023/12/29 08:40:33;;;;;;;4.28;2.22;;;9.70;99.90;;;;;;5072253;28;20751;-74
2023/12/29 08:43:01;;;;;;;3.63;2.00;;;9.70;99.90;;;;;;5090503;28;20126;-67
2023/12/29 08:45:26;;;;;;;9.45;2.88;;;9.80;99.90;;;;;;5090843;28;20438;-66
2023/12/29 08:47:52;;;;;;;4.82;2.63;;;9.80;99.90;;;;;;5071796;28;20028;-68
2023/12/29 08:50:18;;;;;;;4.93;2.50;;;9.80;99.90;;;;;;5090884;28;20107;-70
2023/12/29 08:52:43;;;;;;;4.70;2.10;;;9.80;99.90;;;;;;5089538;28;20044;-67
2023/12/29 08:55:09;;;;;;;4.25;2.08;;;9.80;99.90;;;;;;5073931;28;20120;-69
2023/12/29 08:57:35;;;;;;;3.97;2.20;;;9.90;99.90;;;;;;5069988;28;20032;-71
2023/12/29 09:00:01;;;;;;;3.33;2.00;;;10.00;99.90;;;;;;5075019;28;20048;-69
2023/12/29 09:02:26;;;;;;;5.07;2.50;;;10.20;99.90;;;;;;5090182;28;20028;-69
2023/12/29 09:04:52;;;;;;;4.80;2.22;;;10.20;99.90;;;;;;5089738;28;20073;-69
2023/12/29 09:07:18;;;;;;;5.70;2.40;;;10.30;99.90;;;;;;5090637;28;20043;-69
2023/12/29 09:09:43;;;;;;;4.15;2.00;;;10.20;99.90;;;;;;5072288;28;20027;-68
2023/12/29 09:12:09;;;;;;;6.97;2.35;;;10.10;99.90;;;;;;5090508;28;20112;-68
2023/12/29 09:14:34;;;;;;;4.50;2.40;;;9.90;99.90;;;;;;5090057;28;20435;-72
2023/12/29 09:17:00;;;;;;;4.78;2.35;;;9.80;99.90;;;;;;5089073;28;20076;-68
2023/12/29 09:19:26;;;;;;;5.85;2.20;;;9.90;99.90;;;;;;5102056;28;20028;-68
2023/12/29 09:21:52;;;;;;;4.90;2.08;;;9.90;99.90;;;;;;5071135;28;20093;-69
2023/12/29 09:24:18;;;;;;;4.35;1.92;;;9.80;99.90;;;;;;5071868;28;20036;-70
2023/12/29 09:26:44;;;;;;;3.08;1.80;;;9.80;99.90;;;;;;5089268;28;20497;-70
2023/12/29 09:29:09;;;;;;;4.45;2.15;;;9.70;99.90;;;;;;5089764;28;20028;-69
2023/12/29 09:31:36;;;;;;;4.60;2.22;;;9.70;99.90;;;;;;5095104;28;20488;-70
2023/12/29 09:34:02;;;;;;;3.80;2.13;;;9.70;99.90;;;;;;5101624;28;20039;-68
2023/12/29 09:36:28;;;;;;;4.65;1.85;;;9.60;99.90;;;;;;5104255;28;20047;-70
2023/12/29 09:38:53;;;;;;;4.07;2.00;;;9.60;99.90;;;;;;5100035;28;20036;-69
2023/12/29 09:41:23;;;;;;;3.20;1.83;;;9.70;99.90;;;;;;5085638;28;20523;-69
2023/12/29 09:43:50;;;;;;;3.67;2.00;;;9.70;99.90;;;;;;5088945;28;20157;-67
2023/12/29 09:46:18;;;;;;;3.42;1.95;;;9.80;99.90;;;;;;5089486;28;20467;-68
2023/12/29 09:48:46;;;;;;;6.10;2.08;;;9.90;99.90;;;;;;5088516;28;20024;-67
2023/12/29 09:51:14;;;;;;;3.63;2.00;;;9.90;99.90;;;;;;5089366;28;20038;-67
2023/12/29 09:53:40;;;;;;;2.55;1.60;;;9.90;99.90;;;;;;5089005;28;20032;-70
2023/12/29 09:56:08;;;;;;;4.88;2.30;;;9.90;99.90;;;;;;5089458;28;20016;-65
2023/12/29 09:58:37;;;;;;;3.72;1.98;;;9.90;99.90;;;;;;5077112;28;20497;-66
2023/12/29 10:01:05;;;;;;;3.78;1.98;;;9.90;99.90;;;;;;5102486;28;20477;-67
2023/12/29 10:03:31;;;;;;;5.22;1.92;;;9.90;99.90;;;;;;5109687;28;20476;-67
2023/12/29 10:06:00;;;;;;;3.22;1.92;;;10.00;99.90;;;;;;5090713;28;20776;-67
2023/12/29 10:08:28;;;;;;;3.28;1.88;;;10.00;99.90;;;;;;5070345;28;20116;-66
2023/12/29 10:10:57;;;;;;;4.40;2.55;;;10.00;99.90;;;;;;5088486;28;20111;-68
2023/12/29 10:13:24;;;;;;;3.50;1.48;;;10.10;99.90;;;;;;5066015;28;20059;-68
2023/12/29 10:16:04;;;;;;;5.43;1.75;;;10.10;99.90;;;;;;5086760;28;20115;-68
2023/12/29 10:18:42;;;;;;;3.60;1.50;;;10.20;99.90;;;;;;5076013;28;20042;-68
2023/12/29 10:21:28;;;;;;;3.50;1.92;;;10.20;99.90;;;;;;5075568;28;20039;-69
2023/12/29 10:23:58;;;;;;;2.97;1.63;;;10.20;99.90;;;;;;5073800;28;20035;-66
2023/12/29 10:26:25;;;;;;;2.55;1.55;;;10.20;99.90;;;;;;5055652;28;20039;-68
2023/12/29 10:28:51;;;;;;;4.97;2.08;;;10.20;99.90;;;;;;5075535;28;20492;-67
2023/12/29 10:31:17;;;;;;;2.45;1.30;;;10.20;99.90;;;;;;5073948;28;20040;-67
2023/12/29 10:33:43;;;;;;;3.13;1.50;;;10.20;99.90;;;;;;5084015;28;20028;-71
2023/12/29 10:36:10;;;;;;;4.82;1.40;;;10.30;99.90;;;;;;5079536;28;20471;-67
2023/12/29 10:38:41;;;;;;;2.83;1.60;;;10.40;99.90;;;;;;5086364;28;20027;-69
2023/12/29 10:41:18;;;;;;;2.45;1.10;;;10.60;99.90;;;;;;5088148;28;20126;-69
2023/12/29 10:43:47;;;;;;;2.17;1.23;;;10.80;99.90;;;;;;5076414;28;20028;-72
2023/12/29 10:46:13;;;;;;;2.67;1.48;;;10.80;99.90;;;;;;5057499;28;20676;-70
2023/12/29 10:48:39;;;;;;;3.10;1.48;;;10.80;99.90;;;;;;5067863;28;20064;-68
2023/12/29 10:51:06;;;;;;;2.60;1.50;;;10.90;99.90;;;;;;5074445;28;20032;-67
2023/12/29 10:53:33;;;;;;;2.15;1.30;;;11.00;99.90;;;;;;5081201;28;20111;-70
2023/12/29 10:55:59;;;;;;;3.33;1.63;;;10.90;99.90;;;;;;5057644;28;20032;-69
2023/12/29 10:58:29;;;;;;;3.60;1.60;;;10.70;99.90;;;;;;5087623;28;20382;-69
2023/12/29 11:00:58;;;;;;;2.63;1.17;;;10.60;99.90;;;;;;5087185;28;20056;-68
2023/12/29 11:03:24;;;;;;;3.30;1.50;;;10.50;99.90;;;;;;5069543;28;20043;-69
2023/12/29 11:06:02;;;;;;;3.00;1.52;;;10.50;99.90;;;;;;5083236;28;20024;-69
2023/12/29 11:08:28;;;;;;;3.50;1.30;;;10.50;99.90;;;;;;5084803;28;20043;-71
2023/12/29 11:10:54;;;;;;;2.17;1.40;;;10.50;99.90;;;;;;5087240;28;20032;-68
2023/12/29 11:13:20;;;;;;;3.38;1.10;;;10.50;99.90;;;;;;5070117;28;20474;-70
2023/12/29 11:15:46;;;;;;;4.57;1.42;;;10.50;99.90;;;;;;5085142;28;20369;-73
2023/12/29 11:18:17;;;;;;;2.45;1.40;;;10.50;99.90;;;;;;5063548;28;20033;-68
2023/12/29 11:20:43;;;;;;;;;;;10.60;99.90;;;;;;5075413;28;20125;-72
2023/12/29 11:23:10;;;;;;;2.88;1.20;;;10.60;99.90;;;;;;5083490;28;19912;-69
2023/12/29 11:25:36;;;;;;;2.67;1.38;;;10.60;99.90;;;;;;5068575;28;20024;-68
2023/12/29 11:28:04;;;;;;;1.23;1.00;;;10.60;99.90;;;;;;5087649;28;20032;-68
2023/12/29 11:30:29;;;;;;;2.55;1.38;;;10.70;99.90;;;;;;5086880;28;20035;-67
2023/12/29 11:32:58;;;;;;;2.05;1.10;;;10.70;99.90;;;;;;5075430;28;20041;-68
2023/12/29 11:35:48;;;;;;;3.08;1.38;;;10.80;99.90;;;;;;5068037;28;20035;-68
2023/12/29 11:38:33;;;;;;;3.38;1.45;;;11.00;99.90;;;;;;5054148;28;20177;-69
2023/12/29 11:41:20;;;;;;;2.25;1.00;;;11.00;99.90;;;;;;5082114;28;20029;-68
2023/12/29 11:43:57;;;;;;;3.17;1.42;;;11.10;99.90;;;;;;5069787;28;20039;-72
2023/12/29 11:46:37;;;;;;;2.47;1.40;;;11.10;99.90;;;;;;5088918;28;20099;-70
2023/12/29 11:49:04;;;;;;;2.22;1.10;;;11.10;99.90;;;;;;5086881;28;20485;-68
2023/12/29 11:51:40;;;;;;;2.42;1.50;;;11.20;99.90;;;;;;5091841;28;20101;-68
2023/12/29 11:54:07;;;;;;;3.60;1.40;;;11.20;99.90;;;;;;5091155;28;20048;-68
2023/12/29 11:56:43;;;;;;;2.20;1.30;;;11.30;99.90;;;;;;5073685;28;20089;-70
2023/12/29 11:59:26;;;;;;;2.60;1.38;;;11.50;99.90;;;;;;5073298;28;20033;-69
2023/12/29 12:02:00;;;;;;;4.38;1.55;;;11.60;99.90;;;;;;5090494;28;20124;-68
2023/12/29 12:04:42;;;;;;;2.03;1.05;;;11.70;99.90;;;;;;5073508;28;20377;-68
2023/12/29 12:07:28;;;;;;;2.65;1.50;;;11.60;99.90;;;;;;5072581;28;20512;-69
2023/12/29 12:10:19;;;;;;;2.55;1.35;;;11.50;99.90;;;;;;5086105;28;20478;-68
2023/12/29 12:12:45;;;;;;;2.45;1.00;;;11.30;99.90;;;;;;5060753;28;20093;-71
2023/12/29 12:15:32;;;;;;;3.20;1.00;;;11.30;99.90;;;;;;5071819;28;20025;-67
2023/12/29 12:18:05;;;;;;;1.45;0.95;;;11.10;99.90;;;;;;5060435;28;20035;-69
2023/12/29 12:20:31;;;;;;;2.20;1.17;;;11.00;99.90;;;;;;5090604;28;20398;-69
2023/12/29 12:23:03;;;;;;;2.55;1.10;;;11.00;99.90;;;;;;5089678;28;20339;-69
2023/12/29 12:25:30;;;;;;;3.20;1.33;;;10.90;99.90;;;;;;5077404;28;20028;-70
2023/12/29 12:27:59;;;;;;;3.22;1.45;;;10.80;99.90;;;;;;5070470;28;20028;-70
2023/12/29 12:30:25;;;;;;;3.20;1.60;;;10.80;99.90;;;;;;5079388;28;20039;-69
2023/12/29 12:33:00;;;;;;;4.78;1.45;;;10.80;99.90;;;;;;5090296;28;20032;-73
2023/12/29 12:35:26;;;;;;;1.98;1.05;;;10.70;99.90;;;;;;5090718;28;20031;-71
2023/12/29 12:38:21;;;;;;;3.30;1.48;;;10.70;99.90;;;;;;5075490;28;20028;-71
2023/12/29 12:40:47;;;;;;;4.05;1.38;;;10.60;99.90;;;;;;5060129;28;20024;-74
2023/12/29 12:43:17;;;;;;;1.65;0.98;;;10.60;99.90;;;;;;5070527;28;20047;-70
2023/12/29 12:45:47;;;;;;;3.07;1.23;;;10.60;99.90;;;;;;5072689;28;20036;-70
2023/12/29 12:48:29;;;;;;;1.98;1.20;;;10.60;99.90;;;;;;5090416;28;20250;-69
2023/12/29 12:50:59;;;;;;;2.38;1.20;;;10.60;99.90;;;;;;5068958;28;20432;-69
2023/12/29 12:53:24;;;;;;;1.55;1.00;;;10.50;99.90;;;;;;5068868;28;20036;-70
2023/12/29 12:55:51;;;;;;;2.25;1.40;;;10.60;99.90;;;;;;5081645;28;20036;-73